sensor_id;sensor_type;location;lat;lon;timestamp;temperature;humidity
21425;DHT22;10873;51.132;16.848;2023-04-25T00:01:47;24.60;55.50
21425;DHT22;10873;51.132;16.848;2023-04-25T00:04:13;24.60;55.50
21425;DHT22;10873;51.132;16.848;2023-04-25T00:06:40;24.60;55.50
21425;DHT22;10873;51.132;16.848;2023-04-25T00:09:06;24.50;55.50
21425;DHT22;10873;51.132;16.848;2023-04-25T00:11:37;24.50;55.50
21425;DHT22;10873;51.132;16.848;2023-04-25T00:14:04;24.50;55.50
21425;DHT22;10873;51.132;16.848;2023-04-25T00:16:31;24.50;55.50
21425;DHT22;10873;51.132;16.848;2023-04-25T00:18:59;24.50;55.50
21425;DHT22;10873;51.132;16.848;2023-04-25T00:21:25;24.50;55.50
21425;DHT22;10873;51.132;16.848;2023-04-25T00:23:52;24.50;55.50
21425;DHT22;10873;51.132;16.848;2023-04-25T00:26:18;24.50;55.50
21425;DHT22;10873;51.132;16.848;2023-04-25T00:28:44;24.50;55.40
21425;DHT22;10873;51.132;16.848;2023-04-25T00:31:10;24.50;55.50
21425;DHT22;10873;51.132;16.848;2023-04-25T00:33:38;24.50;55.40
21425;DHT22;10873;51.132;16.848;2023-04-25T00:36:05;24.50;55.30
21425;DHT22;10873;51.132;16.848;2023-04-25T00:38:31;24.50;55.30
21425;DHT22;10873;51.132;16.848;2023-04-25T00:40:57;24.50;55.30
21425;DHT22;10873;51.132;16.848;2023-04-25T00:43:24;24.50;55.30
21425;DHT22;10873;51.132;16.848;2023-04-25T00:45:52;24.50;55.30
21425;DHT22;10873;51.132;16.848;2023-04-25T00:48:21;24.50;55.30
21425;DHT22;10873;51.132;16.848;2023-04-25T00:50:52;24.40;55.10
21425;DHT22;10873;51.132;16.848;2023-04-25T00:53:19;24.50;55.20
21425;DHT22;10873;51.132;16.848;2023-04-25T00:55:46;24.50;55.20
21425;DHT22;10873;51.132;16.848;2023-04-25T00:58:12;24.50;55.10
21425;DHT22;10873;51.132;16.848;2023-04-25T01:00:38;24.50;55.00
21425;DHT22;10873;51.132;16.848;2023-04-25T01:03:04;24.50;55.00
21425;DHT22;10873;51.132;16.848;2023-04-25T01:05:31;24.50;54.90
21425;DHT22;10873;51.132;16.848;2023-04-25T01:07:58;24.50;54.90
21425;DHT22;10873;51.132;16.848;2023-04-25T01:10:25;24.50;54.90
21425;DHT22;10873;51.132;16.848;2023-04-25T01:12:51;24.50;54.70
21425;DHT22;10873;51.132;16.848;2023-04-25T01:15:17;24.50;54.70
21425;DHT22;10873;51.132;16.848;2023-04-25T01:17:43;24.50;54.70
21425;DHT22;10873;51.132;16.848;2023-04-25T01:20:11;24.50;54.60
21425;DHT22;10873;51.132;16.848;2023-04-25T01:22:39;24.50;54.60
21425;DHT22;10873;51.132;16.848;2023-04-25T01:25:07;24.50;54.60
21425;DHT22;10873;51.132;16.848;2023-04-25T01:27:33;24.50;54.50
21425;DHT22;10873;51.132;16.848;2023-04-25T01:29:59;24.50;54.50
21425;DHT22;10873;51.132;16.848;2023-04-25T01:32:26;24.40;54.40
21425;DHT22;10873;51.132;16.848;2023-04-25T01:34:53;24.50;55.10
21425;DHT22;10873;51.132;16.848;2023-04-25T01:37:18;24.50;54.50
21425;DHT22;10873;51.132;16.848;2023-04-25T01:39:46;24.40;54.30
21425;DHT22;10873;51.132;16.848;2023-04-25T01:42:13;24.40;54.30
21425;DHT22;10873;51.132;16.848;2023-04-25T01:44:39;24.40;54.30
21425;DHT22;10873;51.132;16.848;2023-04-25T01:47:05;24.40;54.30
21425;DHT22;10873;51.132;16.848;2023-04-25T01:49:31;24.40;54.30
21425;DHT22;10873;51.132;16.848;2023-04-25T01:51:57;24.40;54.20
21425;DHT22;10873;51.132;16.848;2023-04-25T01:54:23;24.40;54.30
21425;DHT22;10873;51.132;16.848;2023-04-25T01:56:51;24.40;54.30
21425;DHT22;10873;51.132;16.848;2023-04-25T01:59:19;24.40;54.20
21425;DHT22;10873;51.132;16.848;2023-04-25T02:01:47;24.40;54.20
21425;DHT22;10873;51.132;16.848;2023-04-25T02:04:13;24.40;54.20
21425;DHT22;10873;51.132;16.848;2023-04-25T02:06:39;24.40;54.20
21425;DHT22;10873;51.132;16.848;2023-04-25T02:09:05;24.30;54.20
21425;DHT22;10873;51.132;16.848;2023-04-25T02:11:31;24.30;54.10
21425;DHT22;10873;51.132;16.848;2023-04-25T02:13:59;24.30;54.10
21425;DHT22;10873;51.132;16.848;2023-04-25T02:16:24;24.30;54.10
21425;DHT22;10873;51.132;16.848;2023-04-25T02:18:51;24.30;54.10
21425;DHT22;10873;51.132;16.848;2023-04-25T02:21:18;24.30;54.10
21425;DHT22;10873;51.132;16.848;2023-04-25T02:23:44;24.30;54.10
21425;DHT22;10873;51.132;16.848;2023-04-25T02:26:14;24.30;54.10
21425;DHT22;10873;51.132;16.848;2023-04-25T02:28:40;24.30;54.00
21425;DHT22;10873;51.132;16.848;2023-04-25T02:31:07;24.30;54.00
21425;DHT22;10873;51.132;16.848;2023-04-25T02:33:33;24.30;54.00
21425;DHT22;10873;51.132;16.848;2023-04-25T02:36:00;24.30;54.00
21425;DHT22;10873;51.132;16.848;2023-04-25T02:38:26;24.30;54.00
21425;DHT22;10873;51.132;16.848;2023-04-25T02:40:52;24.30;54.00
21425;DHT22;10873;51.132;16.848;2023-04-25T02:43:18;24.20;53.90
21425;DHT22;10873;51.132;16.848;2023-04-25T02:45:44;24.20;53.90
21425;DHT22;10873;51.132;16.848;2023-04-25T02:48:11;24.20;53.90
21425;DHT22;10873;51.132;16.848;2023-04-25T02:50:37;24.20;54.00
21425;DHT22;10873;51.132;16.848;2023-04-25T02:53:03;24.20;54.00
21425;DHT22;10873;51.132;16.848;2023-04-25T02:55:29;24.20;53.90
21425;DHT22;10873;51.132;16.848;2023-04-25T02:57:55;24.20;54.00
21425;DHT22;10873;51.132;16.848;2023-04-25T03:00:21;24.20;53.90
21425;DHT22;10873;51.132;16.848;2023-04-25T03:02:48;24.20;54.00
21425;DHT22;10873;51.132;16.848;2023-04-25T03:05:15;24.20;54.00
21425;DHT22;10873;51.132;16.848;2023-04-25T03:07:42;24.20;54.70
21425;DHT22;10873;51.132;16.848;2023-04-25T03:10:09;24.20;54.10
21425;DHT22;10873;51.132;16.848;2023-04-25T03:12:36;24.20;54.10
21425;DHT22;10873;51.132;16.848;2023-04-25T03:15:02;24.20;54.90
21425;DHT22;10873;51.132;16.848;2023-04-25T03:17:29;24.20;54.20
21425;DHT22;10873;51.132;16.848;2023-04-25T03:19:54;24.20;54.00
21425;DHT22;10873;51.132;16.848;2023-04-25T03:22:22;24.10;53.70
21425;DHT22;10873;51.132;16.848;2023-04-25T03:24:48;24.20;54.00
21425;DHT22;10873;51.132;16.848;2023-04-25T03:27:14;24.10;54.40
21425;DHT22;10873;51.132;16.848;2023-04-25T03:29:40;24.20;54.40
21425;DHT22;10873;51.132;16.848;2023-04-25T03:32:06;24.20;54.40
21425;DHT22;10873;51.132;16.848;2023-04-25T03:34:32;24.20;54.40
21425;DHT22;10873;51.132;16.848;2023-04-25T03:36:58;24.20;54.40
21425;DHT22;10873;51.132;16.848;2023-04-25T03:39:25;24.10;54.30
21425;DHT22;10873;51.132;16.848;2023-04-25T03:41:51;24.10;54.30
21425;DHT22;10873;51.132;16.848;2023-04-25T03:44:17;24.10;54.40
21425;DHT22;10873;51.132;16.848;2023-04-25T03:46:43;24.20;54.40
21425;DHT22;10873;51.132;16.848;2023-04-25T03:49:09;24.10;54.30
21425;DHT22;10873;51.132;16.848;2023-04-25T03:51:35;24.10;54.40
21425;DHT22;10873;51.132;16.848;2023-04-25T03:54:01;24.10;54.40
21425;DHT22;10873;51.132;16.848;2023-04-25T03:56:30;24.10;54.30
21425;DHT22;10873;51.132;16.848;2023-04-25T03:58:55;24.10;54.20
21425;DHT22;10873;51.132;16.848;2023-04-25T04:01:22;24.10;54.20
21425;DHT22;10873;51.132;16.848;2023-04-25T04:03:48;24.10;54.20
21425;DHT22;10873;51.132;16.848;2023-04-25T04:06:14;24.10;54.20
21425;DHT22;10873;51.132;16.848;2023-04-25T04:08:40;24.00;54.20
21425;DHT22;10873;51.132;16.848;2023-04-25T04:11:06;24.10;54.20
21425;DHT22;10873;51.132;16.848;2023-04-25T04:13:34;24.00;54.00
21425;DHT22;10873;51.132;16.848;2023-04-25T04:16:00;24.10;54.00
21425;DHT22;10873;51.132;16.848;2023-04-25T04:18:26;24.00;53.90
21425;DHT22;10873;51.132;16.848;2023-04-25T04:20:52;24.10;53.90
21425;DHT22;10873;51.132;16.848;2023-04-25T04:23:18;24.00;53.90
21425;DHT22;10873;51.132;16.848;2023-04-25T04:25:44;24.00;53.90
21425;DHT22;10873;51.132;16.848;2023-04-25T04:28:10;24.00;53.90
21425;DHT22;10873;51.132;16.848;2023-04-25T04:30:38;24.00;53.80
21425;DHT22;10873;51.132;16.848;2023-04-25T04:33:04;24.00;53.80
21425;DHT22;10873;51.132;16.848;2023-04-25T04:35:30;24.00;53.80
21425;DHT22;10873;51.132;16.848;2023-04-25T04:37:56;24.00;53.70
21425;DHT22;10873;51.132;16.848;2023-04-25T04:40:22;24.00;53.70
21425;DHT22;10873;51.132;16.848;2023-04-25T04:42:48;24.00;53.70
21425;DHT22;10873;51.132;16.848;2023-04-25T04:45:15;24.00;53.70
21425;DHT22;10873;51.132;16.848;2023-04-25T04:47:43;24.00;53.70
21425;DHT22;10873;51.132;16.848;2023-04-25T04:50:10;24.00;53.80
21425;DHT22;10873;51.132;16.848;2023-04-25T04:52:36;24.00;53.80
21425;DHT22;10873;51.132;16.848;2023-04-25T04:55:04;24.00;53.90
21425;DHT22;10873;51.132;16.848;2023-04-25T04:57:31;24.00;53.90
21425;DHT22;10873;51.132;16.848;2023-04-25T04:59:59;24.00;53.90
21425;DHT22;10873;51.132;16.848;2023-04-25T05:02:25;24.00;54.20
21425;DHT22;10873;51.132;16.848;2023-04-25T05:04:52;24.00;54.20
21425;DHT22;10873;51.132;16.848;2023-04-25T05:07:19;24.00;54.10
21425;DHT22;10873;51.132;16.848;2023-04-25T05:09:45;24.00;53.90
21425;DHT22;10873;51.132;16.848;2023-04-25T05:12:11;24.00;53.80
21425;DHT22;10873;51.132;16.848;2023-04-25T05:14:37;24.00;53.70
21425;DHT22;10873;51.132;16.848;2023-04-25T05:17:03;24.00;53.60
21425;DHT22;10873;51.132;16.848;2023-04-25T05:19:32;24.00;53.60
21425;DHT22;10873;51.132;16.848;2023-04-25T05:21:59;24.00;53.50
21425;DHT22;10873;51.132;16.848;2023-04-25T05:24:26;24.00;53.60
21425;DHT22;10873;51.132;16.848;2023-04-25T05:26:52;24.00;53.50
21425;DHT22;10873;51.132;16.848;2023-04-25T05:29:19;24.00;53.40
21425;DHT22;10873;51.132;16.848;2023-04-25T05:31:45;24.00;53.50
21425;DHT22;10873;51.132;16.848;2023-04-25T05:34:11;24.00;53.40
21425;DHT22;10873;51.132;16.848;2023-04-25T05:36:37;24.00;53.40
21425;DHT22;10873;51.132;16.848;2023-04-25T05:39:04;24.10;53.30
21425;DHT22;10873;51.132;16.848;2023-04-25T05:41:31;24.10;53.30
21425;DHT22;10873;51.132;16.848;2023-04-25T05:43:57;24.10;53.20
21425;DHT22;10873;51.132;16.848;2023-04-25T05:46:23;24.10;53.20
21425;DHT22;10873;51.132;16.848;2023-04-25T05:48:49;24.00;53.10
21425;DHT22;10873;51.132;16.848;2023-04-25T05:51:15;24.10;53.20
21425;DHT22;10873;51.132;16.848;2023-04-25T05:53:42;24.10;53.20
21425;DHT22;10873;51.132;16.848;2023-04-25T05:56:09;24.00;53.10
21425;DHT22;10873;51.132;16.848;2023-04-25T05:58:35;24.00;53.10
21425;DHT22;10873;51.132;16.848;2023-04-25T06:01:01;24.00;53.10
21425;DHT22;10873;51.132;16.848;2023-04-25T06:03:28;24.10;53.10
21425;DHT22;10873;51.132;16.848;2023-04-25T06:05:54;24.10;53.10
21425;DHT22;10873;51.132;16.848;2023-04-25T06:08:20;24.10;53.10
21425;DHT22;10873;51.132;16.848;2023-04-25T06:10:46;24.10;53.00
21425;DHT22;10873;51.132;16.848;2023-04-25T06:13:14;24.10;53.00
21425;DHT22;10873;51.132;16.848;2023-04-25T06:15:40;24.10;53.00
21425;DHT22;10873;51.132;16.848;2023-04-25T06:18:07;24.10;52.80
21425;DHT22;10873;51.132;16.848;2023-04-25T06:20:33;24.10;52.80
21425;DHT22;10873;51.132;16.848;2023-04-25T06:22:59;24.10;52.80
21425;DHT22;10873;51.132;16.848;2023-04-25T06:25:25;24.10;52.70
21425;DHT22;10873;51.132;16.848;2023-04-25T06:27:51;24.10;52.70
21425;DHT22;10873;51.132;16.848;2023-04-25T06:30:19;24.10;52.70
21425;DHT22;10873;51.132;16.848;2023-04-25T06:32:48;24.10;52.60
21425;DHT22;10873;51.132;16.848;2023-04-25T06:35:14;24.10;52.60
21425;DHT22;10873;51.132;16.848;2023-04-25T06:37:41;24.20;52.50
21425;DHT22;10873;51.132;16.848;2023-04-25T06:40:08;24.20;52.50
21425;DHT22;10873;51.132;16.848;2023-04-25T06:42:34;24.20;52.50
21425;DHT22;10873;51.132;16.848;2023-04-25T06:45:00;24.10;53.10
21425;DHT22;10873;51.132;16.848;2023-04-25T06:47:28;24.20;52.50
21425;DHT22;10873;51.132;16.848;2023-04-25T06:49:55;24.20;52.50
21425;DHT22;10873;51.132;16.848;2023-04-25T06:52:21;24.20;52.50
21425;DHT22;10873;51.132;16.848;2023-04-25T06:54:47;24.20;52.50
21425;DHT22;10873;51.132;16.848;2023-04-25T06:57:13;24.10;52.40
21425;DHT22;10873;51.132;16.848;2023-04-25T06:59:39;24.10;52.40
21425;DHT22;10873;51.132;16.848;2023-04-25T07:02:05;24.10;52.30
21425;DHT22;10873;51.132;16.848;2023-04-25T07:04:33;24.20;52.40
21425;DHT22;10873;51.132;16.848;2023-04-25T07:06:59;24.20;52.30
21425;DHT22;10873;51.132;16.848;2023-04-25T07:09:26;24.20;52.20
21425;DHT22;10873;51.132;16.848;2023-04-25T07:11:52;24.20;52.20
21425;DHT22;10873;51.132;16.848;2023-04-25T07:14:18;24.20;52.20
21425;DHT22;10873;51.132;16.848;2023-04-25T07:16:44;24.20;52.20
21425;DHT22;10873;51.132;16.848;2023-04-25T07:19:10;24.30;52.20
21425;DHT22;10873;51.132;16.848;2023-04-25T07:21:38;24.30;52.20
21425;DHT22;10873;51.132;16.848;2023-04-25T07:24:04;24.30;52.10
21425;DHT22;10873;51.132;16.848;2023-04-25T07:26:31;24.20;52.10
21425;DHT22;10873;51.132;16.848;2023-04-25T07:28:57;24.30;52.10
21425;DHT22;10873;51.132;16.848;2023-04-25T07:31:23;24.20;52.10
21425;DHT22;10873;51.132;16.848;2023-04-25T07:33:50;24.20;52.20
21425;DHT22;10873;51.132;16.848;2023-04-25T07:36:16;24.20;52.10
21425;DHT22;10873;51.132;16.848;2023-04-25T07:38:43;24.30;52.20
21425;DHT22;10873;51.132;16.848;2023-04-25T07:41:09;24.30;52.20
21425;DHT22;10873;51.132;16.848;2023-04-25T07:43:35;24.30;52.20
21425;DHT22;10873;51.132;16.848;2023-04-25T07:46:01;24.30;52.20
21425;DHT22;10873;51.132;16.848;2023-04-25T07:48:28;24.30;52.20
21425;DHT22;10873;51.132;16.848;2023-04-25T07:50:54;24.30;52.80
21425;DHT22;10873;51.132;16.848;2023-04-25T07:53:20;24.30;52.20
21425;DHT22;10873;51.132;16.848;2023-04-25T07:55:48;24.30;52.20
21425;DHT22;10873;51.132;16.848;2023-04-25T07:58:13;24.40;52.20
21425;DHT22;10873;51.132;16.848;2023-04-25T08:00:41;24.30;52.20
21425;DHT22;10873;51.132;16.848;2023-04-25T08:03:09;24.30;52.20
21425;DHT22;10873;51.132;16.848;2023-04-25T08:05:36;24.40;52.20
21425;DHT22;10873;51.132;16.848;2023-04-25T08:08:02;24.40;52.20
21425;DHT22;10873;51.132;16.848;2023-04-25T08:10:28;24.40;52.30
21425;DHT22;10873;51.132;16.848;2023-04-25T08:12:55;24.40;52.30
21425;DHT22;10873;51.132;16.848;2023-04-25T08:15:21;24.30;52.20
21425;DHT22;10873;51.132;16.848;2023-04-25T08:17:47;24.30;52.20
21425;DHT22;10873;51.132;16.848;2023-04-25T08:20:13;24.40;52.20
21425;DHT22;10873;51.132;16.848;2023-04-25T08:22:39;24.40;52.20
21425;DHT22;10873;51.132;16.848;2023-04-25T08:25:06;24.40;52.20
21425;DHT22;10873;51.132;16.848;2023-04-25T08:27:32;24.40;52.20
21425;DHT22;10873;51.132;16.848;2023-04-25T08:30:00;24.40;52.20
21425;DHT22;10873;51.132;16.848;2023-04-25T08:32:26;24.40;52.20
21425;DHT22;10873;51.132;16.848;2023-04-25T08:34:52;24.40;52.20
21425;DHT22;10873;51.132;16.848;2023-04-25T08:37:19;24.40;52.20
21425;DHT22;10873;51.132;16.848;2023-04-25T08:39:46;24.40;52.20
21425;DHT22;10873;51.132;16.848;2023-04-25T08:42:15;24.40;52.20
21425;DHT22;10873;51.132;16.848;2023-04-25T08:44:41;24.40;52.10
21425;DHT22;10873;51.132;16.848;2023-04-25T08:47:08;24.40;52.20
21425;DHT22;10873;51.132;16.848;2023-04-25T08:49:35;24.40;52.20
21425;DHT22;10873;51.132;16.848;2023-04-25T08:52:02;24.40;52.20
21425;DHT22;10873;51.132;16.848;2023-04-25T08:54:30;24.40;52.20
21425;DHT22;10873;51.132;16.848;2023-04-25T08:56:57;24.40;52.20
21425;DHT22;10873;51.132;16.848;2023-04-25T08:59:28;24.40;52.20
21425;DHT22;10873;51.132;16.848;2023-04-25T09:01:55;24.40;52.20
21425;DHT22;10873;51.132;16.848;2023-04-25T09:04:22;24.30;52.10
21425;DHT22;10873;51.132;16.848;2023-04-25T09:06:48;24.30;52.10
21425;DHT22;10873;51.132;16.848;2023-04-25T09:09:15;24.40;52.20
21425;DHT22;10873;51.132;16.848;2023-04-25T09:11:41;24.30;52.20
21425;DHT22;10873;51.132;16.848;2023-04-25T09:14:15;24.40;52.20
21425;DHT22;10873;51.132;16.848;2023-04-25T09:17:00;24.30;52.20
21425;DHT22;10873;51.132;16.848;2023-04-25T09:19:29;24.30;52.20
21425;DHT22;10873;51.132;16.848;2023-04-25T09:21:56;24.30;52.20
21425;DHT22;10873;51.132;16.848;2023-04-25T09:24:31;24.40;52.20
21425;DHT22;10873;51.132;16.848;2023-04-25T09:26:57;24.30;52.20
21425;DHT22;10873;51.132;16.848;2023-04-25T09:29:29;24.30;52.20
21425;DHT22;10873;51.132;16.848;2023-04-25T09:32:17;24.30;52.20
21425;DHT22;10873;51.132;16.848;2023-04-25T09:34:47;24.30;52.10
21425;DHT22;10873;51.132;16.848;2023-04-25T09:37:19;24.30;52.00
21425;DHT22;10873;51.132;16.848;2023-04-25T09:39:46;24.30;52.00
21425;DHT22;10873;51.132;16.848;2023-04-25T09:42:14;24.30;52.00
21425;DHT22;10873;51.132;16.848;2023-04-25T09:44:45;24.30;52.00
21425;DHT22;10873;51.132;16.848;2023-04-25T09:47:12;24.30;52.00
21425;DHT22;10873;51.132;16.848;2023-04-25T09:49:40;24.30;52.00
21425;DHT22;10873;51.132;16.848;2023-04-25T09:52:14;24.40;52.00
21425;DHT22;10873;51.132;16.848;2023-04-25T09:54:40;24.30;52.00
21425;DHT22;10873;51.132;16.848;2023-04-25T09:57:11;24.30;52.00
21425;DHT22;10873;51.132;16.848;2023-04-25T09:59:38;24.30;51.90
21425;DHT22;10873;51.132;16.848;2023-04-25T10:02:06;24.40;52.00
21425;DHT22;10873;51.132;16.848;2023-04-25T10:04:34;24.40;52.00
21425;DHT22;10873;51.132;16.848;2023-04-25T10:07:01;24.30;52.10
21425;DHT22;10873;51.132;16.848;2023-04-25T10:09:32;24.40;52.00
21425;DHT22;10873;51.132;16.848;2023-04-25T10:12:02;24.40;52.10
21425;DHT22;10873;51.132;16.848;2023-04-25T10:14:30;24.40;52.10
21425;DHT22;10873;51.132;16.848;2023-04-25T10:16:57;24.40;52.00
21425;DHT22;10873;51.132;16.848;2023-04-25T10:19:24;24.40;52.00
21425;DHT22;10873;51.132;16.848;2023-04-25T10:21:52;24.40;52.00
21425;DHT22;10873;51.132;16.848;2023-04-25T10:24:20;24.40;52.00
21425;DHT22;10873;51.132;16.848;2023-04-25T10:26:48;24.40;52.60
21425;DHT22;10873;51.132;16.848;2023-04-25T10:29:22;24.40;51.90
21425;DHT22;10873;51.132;16.848;2023-04-25T10:31:48;24.40;51.80
21425;DHT22;10873;51.132;16.848;2023-04-25T10:34:15;24.40;51.80
21425;DHT22;10873;51.132;16.848;2023-04-25T10:36:41;24.40;52.50
21425;DHT22;10873;51.132;16.848;2023-04-25T10:39:08;24.30;51.80
21425;DHT22;10873;51.132;16.848;2023-04-25T10:41:51;24.40;51.90
21425;DHT22;10873;51.132;16.848;2023-04-25T10:44:18;24.40;51.80
21425;DHT22;10873;51.132;16.848;2023-04-25T10:46:45;24.40;51.80
21425;DHT22;10873;51.132;16.848;2023-04-25T10:49:28;24.30;51.70
21425;DHT22;10873;51.132;16.848;2023-04-25T10:52:10;24.40;51.70
21425;DHT22;10873;51.132;16.848;2023-04-25T10:54:40;24.40;51.70
21425;DHT22;10873;51.132;16.848;2023-04-25T10:57:28;24.40;51.70
21425;DHT22;10873;51.132;16.848;2023-04-25T10:59:58;24.40;51.70
21425;DHT22;10873;51.132;16.848;2023-04-25T11:02:26;24.40;51.80
21425;DHT22;10873;51.132;16.848;2023-04-25T11:04:54;24.40;51.70
21425;DHT22;10873;51.132;16.848;2023-04-25T11:07:29;24.40;51.70
21425;DHT22;10873;51.132;16.848;2023-04-25T11:10:01;24.40;51.70
21425;DHT22;10873;51.132;16.848;2023-04-25T11:12:30;24.40;51.80
21425;DHT22;10873;51.132;16.848;2023-04-25T11:15:02;24.40;51.70
21425;DHT22;10873;51.132;16.848;2023-04-25T11:17:28;24.40;51.70
21425;DHT22;10873;51.132;16.848;2023-04-25T11:19:55;24.40;51.50
21425;DHT22;10873;51.132;16.848;2023-04-25T11:22:22;24.40;51.40
21425;DHT22;10873;51.132;16.848;2023-04-25T11:24:48;24.40;51.30
21425;DHT22;10873;51.132;16.848;2023-04-25T11:27:14;24.50;51.40
21425;DHT22;10873;51.132;16.848;2023-04-25T11:29:42;24.50;51.30
21425;DHT22;10873;51.132;16.848;2023-04-25T11:32:08;24.50;51.30
21425;DHT22;10873;51.132;16.848;2023-04-25T11:34:34;24.50;51.20
21425;DHT22;10873;51.132;16.848;2023-04-25T11:37:01;24.50;51.20
21425;DHT22;10873;51.132;16.848;2023-04-25T11:39:28;24.50;51.30
21425;DHT22;10873;51.132;16.848;2023-04-25T11:41:54;24.50;51.20
21425;DHT22;10873;51.132;16.848;2023-04-25T11:44:21;24.50;51.20
21425;DHT22;10873;51.132;16.848;2023-04-25T11:46:49;24.50;51.20
21425;DHT22;10873;51.132;16.848;2023-04-25T11:49:15;24.50;51.10
21425;DHT22;10873;51.132;16.848;2023-04-25T11:51:44;24.50;51.10
21425;DHT22;10873;51.132;16.848;2023-04-25T11:54:11;24.50;51.00
21425;DHT22;10873;51.132;16.848;2023-04-25T11:56:37;24.50;51.00
21425;DHT22;10873;51.132;16.848;2023-04-25T11:59:06;24.50;50.90
21425;DHT22;10873;51.132;16.848;2023-04-25T12:01:33;24.50;51.60
21425;DHT22;10873;51.132;16.848;2023-04-25T12:04:11;24.50;51.00
21425;DHT22;10873;51.132;16.848;2023-04-25T12:06:38;24.50;50.90
21425;DHT22;10873;51.132;16.848;2023-04-25T12:09:08;24.50;50.90
21425;DHT22;10873;51.132;16.848;2023-04-25T12:11:40;24.50;50.80
21425;DHT22;10873;51.132;16.848;2023-04-25T12:14:07;24.50;50.80
21425;DHT22;10873;51.132;16.848;2023-04-25T12:16:40;24.50;50.80
21425;DHT22;10873;51.132;16.848;2023-04-25T12:19:07;24.50;50.70
21425;DHT22;10873;51.132;16.848;2023-04-25T12:21:34;24.50;50.80
21425;DHT22;10873;51.132;16.848;2023-04-25T12:24:11;24.50;50.70
21425;DHT22;10873;51.132;16.848;2023-04-25T12:26:48;24.50;50.70
21425;DHT22;10873;51.132;16.848;2023-04-25T12:29:17;24.50;50.80
21425;DHT22;10873;51.132;16.848;2023-04-25T12:31:43;24.50;50.80
21425;DHT22;10873;51.132;16.848;2023-04-25T12:34:09;24.50;50.70
21425;DHT22;10873;51.132;16.848;2023-04-25T12:36:37;24.50;50.70
21425;DHT22;10873;51.132;16.848;2023-04-25T12:39:03;24.50;50.60
21425;DHT22;10873;51.132;16.848;2023-04-25T12:41:29;24.50;50.50
21425;DHT22;10873;51.132;16.848;2023-04-25T12:43:56;24.50;50.60
21425;DHT22;10873;51.132;16.848;2023-04-25T12:46:22;24.50;50.60
21425;DHT22;10873;51.132;16.848;2023-04-25T12:48:51;24.50;50.50
21425;DHT22;10873;51.132;16.848;2023-04-25T12:51:17;24.50;50.50
21425;DHT22;10873;51.132;16.848;2023-04-25T12:53:45;24.50;50.50
21425;DHT22;10873;51.132;16.848;2023-04-25T12:56:11;24.50;50.50
21425;DHT22;10873;51.132;16.848;2023-04-25T12:58:37;24.50;50.50
21425;DHT22;10873;51.132;16.848;2023-04-25T13:01:03;24.50;51.10
21425;DHT22;10873;51.132;16.848;2023-04-25T13:03:29;24.50;50.50
21425;DHT22;10873;51.132;16.848;2023-04-25T13:05:55;24.50;50.40
21425;DHT22;10873;51.132;16.848;2023-04-25T13:08:21;24.50;50.30
21425;DHT22;10873;51.132;16.848;2023-04-25T13:10:49;24.50;50.40
21425;DHT22;10873;51.132;16.848;2023-04-25T13:13:15;24.50;50.50
21425;DHT22;10873;51.132;16.848;2023-04-25T13:15:42;24.50;50.40
21425;DHT22;10873;51.132;16.848;2023-04-25T13:18:08;24.50;50.40
21425;DHT22;10873;51.132;16.848;2023-04-25T13:20:34;24.50;50.30
21425;DHT22;10873;51.132;16.848;2023-04-25T13:23:00;24.50;50.30
21425;DHT22;10873;51.132;16.848;2023-04-25T13:25:26;24.50;50.20
21425;DHT22;10873;51.132;16.848;2023-04-25T13:27:54;24.50;50.00
21425;DHT22;10873;51.132;16.848;2023-04-25T13:30:20;24.50;50.10
21425;DHT22;10873;51.132;16.848;2023-04-25T13:32:46;24.50;50.10
21425;DHT22;10873;51.132;16.848;2023-04-25T13:35:13;24.50;50.10
21425;DHT22;10873;51.132;16.848;2023-04-25T13:37:40;24.50;50.00
21425;DHT22;10873;51.132;16.848;2023-04-25T13:40:08;24.50;50.20
21425;DHT22;10873;51.132;16.848;2023-04-25T13:42:36;24.50;50.50
21425;DHT22;10873;51.132;16.848;2023-04-25T13:45:04;24.50;50.50
21425;DHT22;10873;51.132;16.848;2023-04-25T13:47:30;24.50;50.40
21425;DHT22;10873;51.132;16.848;2023-04-25T13:49:56;24.50;50.30
21425;DHT22;10873;51.132;16.848;2023-04-25T13:52:23;24.50;50.20
21425;DHT22;10873;51.132;16.848;2023-04-25T13:54:49;24.50;50.30
21425;DHT22;10873;51.132;16.848;2023-04-25T13:57:16;24.50;50.30
21425;DHT22;10873;51.132;16.848;2023-04-25T13:59:42;24.50;50.10
21425;DHT22;10873;51.132;16.848;2023-04-25T14:02:10;24.50;50.10
21425;DHT22;10873;51.132;16.848;2023-04-25T14:04:36;24.50;50.10
21425;DHT22;10873;51.132;16.848;2023-04-25T14:07:03;24.50;50.20
21425;DHT22;10873;51.132;16.848;2023-04-25T14:09:29;24.50;50.20
21425;DHT22;10873;51.132;16.848;2023-04-25T14:11:55;24.50;50.30
21425;DHT22;10873;51.132;16.848;2023-04-25T14:14:22;24.50;50.40
21425;DHT22;10873;51.132;16.848;2023-04-25T14:16:50;24.50;50.40
21425;DHT22;10873;51.132;16.848;2023-04-25T14:19:18;24.50;50.60
21425;DHT22;10873;51.132;16.848;2023-04-25T14:21:44;24.50;50.50
21425;DHT22;10873;51.132;16.848;2023-04-25T14:24:10;24.50;50.70
21425;DHT22;10873;51.132;16.848;2023-04-25T14:26:39;24.50;50.70
21425;DHT22;10873;51.132;16.848;2023-04-25T14:29:07;24.50;50.80
21425;DHT22;10873;51.132;16.848;2023-04-25T14:31:33;24.50;50.90
21425;DHT22;10873;51.132;16.848;2023-04-25T14:33:59;24.50;50.90
21425;DHT22;10873;51.132;16.848;2023-04-25T14:36:28;24.50;51.60
21425;DHT22;10873;51.132;16.848;2023-04-25T14:38:54;24.50;50.90
21425;DHT22;10873;51.132;16.848;2023-04-25T14:41:21;24.50;50.10
21425;DHT22;10873;51.132;16.848;2023-04-25T14:43:46;24.40;48.10
21425;DHT22;10873;51.132;16.848;2023-04-25T14:46:13;24.30;47.10
21425;DHT22;10873;51.132;16.848;2023-04-25T14:48:39;24.30;46.90
21425;DHT22;10873;51.132;16.848;2023-04-25T14:51:05;24.30;47.60
21425;DHT22;10873;51.132;16.848;2023-04-25T14:53:32;24.30;48.70
21425;DHT22;10873;51.132;16.848;2023-04-25T14:55:59;24.30;49.30
21425;DHT22;10873;51.132;16.848;2023-04-25T14:58:25;24.30;49.70
21425;DHT22;10873;51.132;16.848;2023-04-25T15:00:51;24.30;50.00
21425;DHT22;10873;51.132;16.848;2023-04-25T15:03:17;24.30;50.20
21425;DHT22;10873;51.132;16.848;2023-04-25T15:05:43;24.30;50.40
21425;DHT22;10873;51.132;16.848;2023-04-25T15:08:15;24.30;50.40
21425;DHT22;10873;51.132;16.848;2023-04-25T15:10:46;24.30;50.40
21425;DHT22;10873;51.132;16.848;2023-04-25T15:13:12;24.30;50.50
21425;DHT22;10873;51.132;16.848;2023-04-25T15:15:40;24.40;50.50